Time;durP1;ratioP1;P1;durP2;ratioP2;P2;SDS_P1;SDS_P2;PMS_P1;PMS_P2;Temp;Humidity;BMP_temperature;BMP_pressure;BME280_temperature;BME280_humidity;BME280_pressure;Samples;Min_cycle;Max_cycle;Signal;HPM_P1;HPM_P2
2022/12/23 00:01:21;;;;;;;2.30;0.85;;;10.70;99.90;;;;;;4985922;28;20465;-59
2022/12/23 00:03:47;;;;;;;2.97;1.23;;;10.60;99.90;;;;;;4986622;28;20465;-62
2022/12/23 00:06:15;;;;;;;5.75;0.90;;;10.70;99.90;;;;;;4985692;28;20060;-62
2022/12/23 00:08:42;;;;;;;4.85;0.90;;;10.70;99.90;;;;;;4972920;28;20109;-63
2022/12/23 00:11:16;;;;;;;1.40;0.85;;;10.70;99.90;;;;;;4989736;28;20129;-60
2022/12/23 00:16:28;;;;;;;3.88;2.28;;;10.70;99.90;;;;;;4990035;28;20130;-61
2022/12/23 00:18:55;;;;;;;2.03;1.17;;;10.70;99.90;;;;;;4989963;28;20053;-62
2022/12/23 00:21:22;;;;;;;3.33;0.90;;;10.60;99.90;;;;;;4989314;28;20038;-61
2022/12/23 00:23:49;;;;;;;2.97;0.90;;;10.60;99.90;;;;;;4989891;28;20042;-61
2022/12/23 00:26:24;;;;;;;2.88;1.15;;;10.50;99.90;;;;;;4989516;28;20497;-61
2022/12/23 00:28:51;;;;;;;1.70;1.05;;;10.40;99.90;;;;;;4985576;28;20073;-62
2022/12/23 00:31:18;;;;;;;2.70;0.80;;;10.50;99.90;;;;;;4970732;28;20398;-62
2022/12/23 00:33:46;;;;;;;3.45;1.20;;;10.40;99.90;;;;;;4971523;28;20046;-61
2022/12/23 00:36:16;;;;;;;2.75;1.30;;;10.40;99.90;;;;;;4987707;28;20077;-61
2022/12/23 00:44:14;;;;;;;4.10;1.38;;;10.20;99.90;;;;;;4988849;28;20097;-61
2022/12/23 00:46:41;;;;;;;2.03;1.45;;;10.30;99.90;;;;;;4988704;28;20136;-61
2022/12/23 00:51:55;;;;;;;2.42;1.10;;;10.30;99.90;;;;;;4989243;28;20082;-60
2022/12/23 00:54:22;;;;;;;1.83;1.20;;;10.30;99.90;;;;;;4987708;28;20047;-61
2022/12/23 00:56:49;;;;;;;2.42;0.90;;;10.20;99.90;;;;;;4989542;28;20133;-62
2022/12/23 00:59:15;;;;;;;3.33;0.90;;;10.20;99.90;;;;;;4989694;28;20050;-63
2022/12/23 01:07:13;;;;;;;2.30;0.90;;;10.30;99.90;;;;;;4990234;28;20049;-62
2022/12/23 01:09:40;;;;;;;3.63;0.95;;;10.30;99.90;;;;;;4972520;28;20153;-62
2022/12/23 01:12:06;;;;;;;3.28;1.35;;;10.20;99.90;;;;;;4990152;28;20042;-61
2022/12/23 01:14:33;;;;;;;1.35;0.80;;;10.30;99.90;;;;;;4989910;28;20046;-61
2022/12/23 01:17:00;;;;;;;2.53;0.93;;;10.20;99.90;;;;;;4970661;28;20202;-62
2022/12/23 01:19:27;;;;;;;3.45;0.75;;;10.20;99.90;;;;;;4984519;28;20054;-62
2022/12/23 01:21:54;;;;;;;1.20;0.85;;;10.20;99.90;;;;;;4972995;28;20047;-61
2022/12/23 01:24:21;;;;;;;1.17;0.70;;;10.20;99.90;;;;;;4989420;28;20469;-62
2022/12/23 01:26:48;;;;;;;1.88;1.05;;;10.10;99.90;;;;;;4989688;28;20052;-61
2022/12/23 01:29:14;;;;;;;2.88;0.73;;;10.10;99.90;;;;;;4989843;28;20050;-62
2022/12/23 01:31:41;;;;;;;1.48;0.70;;;10.10;99.90;;;;;;4989896;28;20042;-62
2022/12/23 01:34:09;;;;;;;2.17;0.77;;;10.10;99.90;;;;;;4989922;28;20057;-62
2022/12/23 01:36:36;;;;;;;1.38;0.70;;;10.10;99.90;;;;;;4990253;28;20050;-61
2022/12/23 01:39:05;;;;;;;4.03;0.90;;;10.10;99.90;;;;;;4973662;28;20038;-61
2022/12/23 01:44:47;;;;;;;6.47;1.15;;;10.10;99.90;;;;;;4982645;28;20050;-61
2022/12/23 01:47:16;;;;;;;1.33;0.50;;;10.00;99.90;;;;;;4997349;28;20050;-61
2022/12/23 01:49:43;;;;;;;4.65;0.80;;;10.00;99.90;;;;;;4960383;28;20082;-61
2022/12/23 01:52:10;;;;;;;1.35;0.45;;;10.00;99.90;;;;;;4976381;28;20060;-61
2022/12/23 01:54:37;;;;;;;0.70;0.70;;;10.00;99.90;;;;;;4994535;28;20106;-61
2022/12/23 01:57:04;;;;;;;1.10;0.70;;;10.00;99.90;;;;;;4976135;28;20057;-61
2022/12/23 02:05:06;;;;;;;0.65;0.50;;;9.90;99.90;;;;;;4965767;28;20042;-61
2022/12/23 02:10:18;;;;;;;0.70;0.50;;;9.90;99.90;;;;;;4993291;28;20046;-61
2022/12/23 02:13:15;;;;;;;0.40;0.40;;;9.90;99.90;;;;;;4975766;28;20054;-61
2022/12/23 02:18:43;;;;;;;0.75;0.40;;;9.90;99.90;;;;;;4965311;28;20210;-61
2022/12/23 02:21:28;;;;;;;0.80;0.55;;;10.00;99.90;;;;;;4993096;28;20082;-60
2022/12/23 02:24:25;;;;;;;0.73;0.50;;;10.00;99.90;;;;;;4977594;28;20096;-61
2022/12/23 02:27:04;;;;;;;1.40;0.52;;;10.00;99.90;;;;;;4975088;28;20054;-61
2022/12/23 02:30:05;;;;;;;0.80;0.57;;;10.00;99.90;;;;;;4941946;28;20102;-60
2022/12/23 02:33:03;;;;;;;2.08;1.17;;;9.90;99.90;;;;;;4961407;28;20050;-60
2022/12/23 02:35:57;;;;;;;0.65;0.50;;;9.90;99.90;;;;;;4973161;28;20047;-62
2022/12/23 02:38:29;;;;;;;1.45;0.52;;;9.90;99.90;;;;;;4950674;28;20113;-61
2022/12/23 02:41:18;;;;;;;1.02;0.52;;;9.80;99.90;;;;;;4992096;28;20096;-60
2022/12/23 02:43:49;;;;;;;3.80;0.70;;;9.90;99.90;;;;;;4959194;28;20054;-61
2022/12/23 02:46:40;;;;;;;2.80;1.80;;;9.90;99.90;;;;;;4958774;28;20046;-61
2022/12/23 02:49:08;;;;;;;1.52;0.80;;;9.90;99.90;;;;;;4982958;28;20480;-61
2022/12/23 02:51:37;;;;;;;2.20;0.60;;;9.90;99.90;;;;;;4973949;28;20052;-61
2022/12/23 02:54:06;;;;;;;3.88;0.90;;;9.90;99.90;;;;;;4958994;28;20080;-61
2022/12/23 02:56:34;;;;;;;1.58;0.82;;;9.90;99.90;;;;;;4958472;28;20117;-61
2022/12/23 02:59:36;;;;;;;2.65;1.00;;;9.90;99.90;;;;;;4967860;28;20142;-60
2022/12/23 03:02:03;;;;;;;1.52;0.70;;;9.90;99.90;;;;;;4929905;28;20576;-62
2022/12/23 03:04:30;;;;;;;4.10;0.80;;;9.90;99.90;;;;;;4952891;29;20051;-60
2022/12/23 03:06:59;;;;;;;0.75;0.60;;;9.90;99.90;;;;;;4952826;29;20051;-62
2022/12/23 03:09:41;;;;;;;2.22;1.15;;;9.90;99.90;;;;;;4953178;28;20055;-62
2022/12/23 03:12:21;;;;;;;1.13;0.70;;;9.80;99.90;;;;;;4967290;28;20053;-61
2022/12/23 03:14:58;;;;;;;2.25;0.57;;;9.80;99.90;;;;;;4951829;29;20050;-62
2022/12/23 03:17:34;;;;;;;1.40;0.60;;;9.80;99.90;;;;;;4951819;29;20130;-62
2022/12/23 03:20:18;;;;;;;0.80;0.57;;;9.80;99.90;;;;;;4951599;29;20130;-62
2022/12/23 03:23:11;;;;;;;0.50;0.40;;;9.80;99.90;;;;;;4949589;29;20092;-62
2022/12/23 03:25:46;;;;;;;0.53;0.40;;;9.80;99.90;;;;;;4935325;28;20074;-61
2022/12/23 03:28:30;;;;;;;3.15;0.50;;;9.70;99.90;;;;;;4964458;28;20047;-62
2022/12/23 03:30:57;;;;;;;0.93;0.60;;;9.70;99.90;;;;;;4967478;28;20051;-62
2022/12/23 03:33:35;;;;;;;2.60;0.60;;;9.70;99.90;;;;;;4935495;29;20050;-62
2022/12/23 03:36:24;;;;;;;0.40;0.40;;;9.80;99.90;;;;;;4952813;28;20438;-61
2022/12/23 03:38:51;;;;;;;1.85;0.50;;;9.70;99.90;;;;;;4937959;29;20061;-61
2022/12/23 03:41:24;;;;;;;1.02;0.60;;;9.70;99.90;;;;;;4967107;28;20070;-61
2022/12/23 03:43:55;;;;;;;1.35;0.70;;;9.70;99.90;;;;;;4966590;28;20051;-60
2022/12/23 03:46:30;;;;;;;0.93;0.52;;;9.80;99.90;;;;;;4951469;29;20143;-61
2022/12/23 03:49:02;;;;;;;0.40;0.40;;;9.80;99.90;;;;;;4930817;29;20460;-61
2022/12/23 03:51:31;;;;;;;1.42;1.05;;;9.80;99.90;;;;;;4945828;29;20517;-62
2022/12/23 03:54:00;;;;;;;1.48;0.60;;;9.80;99.90;;;;;;4935308;29;20043;-61
2022/12/23 03:56:37;;;;;;;2.95;0.55;;;9.80;99.90;;;;;;4950105;29;20087;-62
2022/12/23 03:59:17;;;;;;;1.17;0.70;;;9.80;99.90;;;;;;4988413;28;20410;-60
2022/12/23 04:01:50;;;;;;;1.20;0.47;;;9.70;99.90;;;;;;4990970;28;20081;-61
2022/12/23 04:05:02;;;;;;;0.50;0.50;;;9.70;99.90;;;;;;4989715;28;20529;-61
2022/12/23 04:08:04;;;;;;;1.17;0.47;;;9.70;99.90;;;;;;4971316;28;20051;-61
2022/12/23 04:10:31;;;;;;;0.50;0.50;;;9.70;99.90;;;;;;4973241;28;20048;-61
2022/12/23 04:12:58;;;;;;;0.40;0.40;;;9.70;99.90;;;;;;4957553;28;20081;-61
2022/12/23 04:15:25;;;;;;;0.47;0.40;;;9.70;99.90;;;;;;4971725;28;20573;-61
2022/12/23 04:17:53;;;;;;;1.15;0.88;;;9.70;99.90;;;;;;4955554;28;20634;-61
2022/12/23 04:20:20;;;;;;;0.38;0.38;;;9.70;99.90;;;;;;4982499;28;20077;-61
2022/12/23 04:22:47;;;;;;;1.52;0.40;;;9.70;99.90;;;;;;4957448;28;20399;-61
2022/12/23 04:25:15;;;;;;;1.15;0.55;;;9.70;99.90;;;;;;4973144;28;20126;-60
2022/12/23 04:27:42;;;;;;;2.38;0.40;;;9.70;99.90;;;;;;4972933;28;20129;-61
2022/12/23 04:30:10;;;;;;;0.57;0.52;;;9.70;99.90;;;;;;4973341;28;20058;-61
2022/12/23 04:32:38;;;;;;;0.45;0.40;;;9.70;99.90;;;;;;4957445;28;20070;-61
2022/12/23 04:35:05;;;;;;;0.40;0.40;;;9.70;99.90;;;;;;4972410;28;20460;-61
2022/12/23 04:37:33;;;;;;;0.98;0.50;;;9.70;99.90;;;;;;4990133;28;20054;-61
2022/12/23 04:40:00;;;;;;;3.97;0.60;;;9.80;99.90;;;;;;4990212;28;20066;-61
2022/12/23 04:42:27;;;;;;;1.38;0.52;;;9.70;99.90;;;;;;4990269;28;20138;-61
2022/12/23 04:44:53;;;;;;;1.60;1.20;;;9.70;99.90;;;;;;4990416;28;20046;-61
2022/12/23 04:47:20;;;;;;;1.55;0.55;;;9.70;99.90;;;;;;4971153;28;20049;-60
2022/12/23 04:49:47;;;;;;;0.47;0.40;;;9.70;99.90;;;;;;4990582;28;20078;-62
2022/12/23 04:52:14;;;;;;;1.20;0.50;;;9.70;99.90;;;;;;4990376;28;20133;-60
2022/12/23 04:54:40;;;;;;;0.35;0.32;;;9.70;99.90;;;;;;4990076;28;20084;-62
2022/12/23 04:57:12;;;;;;;0.38;0.38;;;9.70;99.90;;;;;;4973306;28;20058;-62
2022/12/23 04:59:39;;;;;;;0.40;0.40;;;9.70;99.90;;;;;;4973000;28;20133;-62
2022/12/23 05:02:06;;;;;;;0.40;0.40;;;9.70;99.90;;;;;;4990133;28;20050;-61
2022/12/23 05:04:33;;;;;;;2.05;0.47;;;9.70;99.90;;;;;;4956928;28;20053;-62
2022/12/23 05:07:01;;;;;;;3.05;0.65;;;9.70;99.90;;;;;;4987116;28;20085;-61
2022/12/23 05:09:28;;;;;;;0.68;0.32;;;9.70;99.90;;;;;;4973590;28;20133;-62
2022/12/23 05:11:55;;;;;;;0.80;0.50;;;9.70;99.90;;;;;;4972731;28;20057;-62
2022/12/23 05:14:22;;;;;;;2.60;0.40;;;9.70;99.90;;;;;;4990240;28;20085;-62
2022/12/23 05:16:48;;;;;;;1.52;0.60;;;9.70;99.90;;;;;;4976899;28;20057;-62
2022/12/23 05:19:16;;;;;;;1.50;0.50;;;9.60;99.90;;;;;;4977046;28;20457;-61
2022/12/23 05:21:43;;;;;;;0.45;0.40;;;9.70;99.90;;;;;;4993924;28;20528;-61
2022/12/23 05:24:10;;;;;;;0.30;0.30;;;9.70;99.90;;;;;;4978953;28;20046;-60
2022/12/23 05:26:37;;;;;;;0.75;0.70;;;9.60;99.90;;;;;;4997070;28;20141;-63
2022/12/23 05:29:04;;;;;;;0.40;0.40;;;9.70;99.90;;;;;;4999431;28;20501;-61
2022/12/23 05:31:31;;;;;;;1.52;0.60;;;9.70;99.90;;;;;;4997043;28;20054;-60
2022/12/23 05:33:58;;;;;;;1.15;0.50;;;9.70;99.90;;;;;;4995543;28;20050;-60
2022/12/23 05:36:32;;;;;;;0.30;0.30;;;9.70;99.90;;;;;;4960197;28;20478;-61
2022/12/23 05:38:58;;;;;;;0.40;0.40;;;9.70;99.90;;;;;;4970104;28;20281;-60
2022/12/23 05:41:25;;;;;;;0.30;0.30;;;9.70;99.90;;;;;;4989824;28;20414;-61
2022/12/23 05:43:52;;;;;;;1.27;0.50;;;9.70;99.90;;;;;;4993151;28;20082;-62
2022/12/23 05:46:21;;;;;;;0.85;0.40;;;9.70;99.90;;;;;;4977650;28;20505;-61
2022/12/23 05:48:52;;;;;;;0.38;0.30;;;9.60;99.90;;;;;;4994526;28;20050;-62
2022/12/23 05:51:20;;;;;;;1.67;0.40;;;9.60;99.90;;;;;;4994550;28;20046;-60
2022/12/23 05:53:46;;;;;;;0.73;0.40;;;9.60;99.90;;;;;;4994398;28;20054;-62
2022/12/23 05:56:15;;;;;;;0.55;0.30;;;9.70;99.90;;;;;;4994777;28;20050;-61
2022/12/23 05:58:42;;;;;;;3.30;0.60;;;9.70;99.90;;;;;;4995107;28;20062;-61
2022/12/23 06:01:09;;;;;;;3.38;0.65;;;9.60;99.90;;;;;;4995162;28;20570;-62
2022/12/23 06:03:38;;;;;;;0.50;0.50;;;9.60;99.90;;;;;;4978145;28;20058;-61
2022/12/23 06:06:07;;;;;;;1.48;0.45;;;9.50;99.90;;;;;;4992422;28;20054;-60
2022/12/23 06:08:33;;;;;;;0.95;0.60;;;9.50;99.90;;;;;;4994370;28;20046;-62
2022/12/23 06:11:03;;;;;;;0.43;0.38;;;9.50;99.90;;;;;;4996649;28;20054;-62
2022/12/23 06:13:30;;;;;;;2.78;0.40;;;9.60;99.90;;;;;;4996493;28;20666;-62
2022/12/23 06:15:57;;;;;;;0.30;0.30;;;9.60;99.90;;;;;;4979153;28;20057;-61
2022/12/23 06:18:23;;;;;;;1.35;0.50;;;9.60;99.90;;;;;;4995273;28;20046;-62
2022/12/23 06:20:50;;;;;;;4.30;0.50;;;9.60;99.90;;;;;;4980219;28;20066;-62
2022/12/23 06:23:17;;;;;;;1.85;0.40;;;9.60;99.90;;;;;;4997767;28;20169;-62
2022/12/23 06:25:44;;;;;;;0.82;0.50;;;9.50;99.90;;;;;;4996136;28;20046;-62
2022/12/23 06:28:12;;;;;;;2.00;0.68;;;9.60;99.90;;;;;;4979275;28;20446;-62
2022/12/23 06:30:38;;;;;;;2.55;0.60;;;9.60;99.90;;;;;;4995860;28;20114;-62
2022/12/23 06:33:05;;;;;;;2.40;0.45;;;9.50;99.90;;;;;;4978100;28;20560;-62
2022/12/23 06:35:32;;;;;;;3.47;0.57;;;9.50;99.90;;;;;;4989990;28;20070;-61
2022/12/23 06:37:58;;;;;;;5.28;0.75;;;9.50;99.90;;;;;;4993591;28;20046;-62
2022/12/23 06:40:27;;;;;;;2.90;0.70;;;9.50;99.90;;;;;;4993093;28;20058;-62
2022/12/23 06:42:55;;;;;;;2.65;0.80;;;9.40;99.90;;;;;;4975850;28;20053;-62
2022/12/23 06:45:22;;;;;;;1.13;0.60;;;9.30;99.90;;;;;;4975516;28;20056;-61
2022/12/23 06:47:49;;;;;;;5.05;1.05;;;9.30;99.90;;;;;;4992855;28;20050;-61
2022/12/23 06:50:16;;;;;;;2.17;1.00;;;9.30;99.90;;;;;;4991974;28;20105;-61
2022/12/23 06:52:44;;;;;;;3.13;1.27;;;9.30;99.90;;;;;;4991793;28;20046;-62
2022/12/23 06:55:10;;;;;;;8.27;1.63;;;9.20;99.90;;;;;;4974791;28;20502;-62
2022/12/23 06:57:37;;;;;;;7.32;2.08;;;9.20;99.90;;;;;;4958626;28;20522;-62
2022/12/23 07:00:05;;;;;;;8.07;1.50;;;9.20;99.90;;;;;;4991865;28;20070;-62
2022/12/23 07:02:32;;;;;;;4.28;0.98;;;9.20;99.90;;;;;;4980643;28;20046;-62
2022/12/23 07:04:59;;;;;;;7.50;1.55;;;9.00;99.90;;;;;;4977636;28;20113;-62
2022/12/23 07:07:25;;;;;;;3.30;1.30;;;9.00;99.90;;;;;;4992165;28;20043;-61
2022/12/23 07:09:52;;;;;;;2.42;1.23;;;9.00;99.90;;;;;;4958162;28;20081;-62
2022/12/23 07:12:19;;;;;;;2.55;1.27;;;8.90;99.90;;;;;;4973868;28;20081;-63
2022/12/23 07:14:48;;;;;;;2.40;1.20;;;8.90;99.90;;;;;;4957730;28;20058;-62
2022/12/23 07:17:15;;;;;;;5.63;1.40;;;8.80;99.90;;;;;;4974931;28;20100;-61
2022/12/23 07:19:42;;;;;;;1.30;0.95;;;8.90;99.90;;;;;;4991572;28;20070;-61
2022/12/23 07:22:09;;;;;;;2.03;1.17;;;8.80;99.90;;;;;;4974181;28;20051;-62
2022/12/23 07:24:36;;;;;;;4.88;1.52;;;8.80;99.90;;;;;;4990581;28;20469;-61
2022/12/23 07:27:03;;;;;;;4.80;1.20;;;8.90;99.90;;;;;;4942696;28;20145;-61
2022/12/23 07:29:30;;;;;;;2.80;1.20;;;8.90;99.90;;;;;;4974729;28;20570;-61
2022/12/23 07:31:57;;;;;;;1.13;0.80;;;8.90;99.90;;;;;;4997140;28;20060;-61
2022/12/23 07:34:24;;;;;;;3.00;1.05;;;8.90;99.90;;;;;;4992492;28;20113;-62
2022/12/23 07:36:51;;;;;;;2.03;1.00;;;8.90;99.90;;;;;;4986304;28;20454;-62
2022/12/23 07:39:18;;;;;;;1.90;1.10;;;8.90;99.90;;;;;;4957193;28;20050;-62
2022/12/23 07:41:45;;;;;;;3.10;1.20;;;8.90;99.90;;;;;;4954422;28;20073;-61
2022/12/23 07:44:12;;;;;;;6.00;2.15;;;8.90;99.90;;;;;;4970500;28;20093;-62
2022/12/23 07:46:39;;;;;;;2.40;1.08;;;8.90;99.90;;;;;;4972406;28;20050;-62
2022/12/23 07:49:05;;;;;;;3.05;1.58;;;8.80;99.90;;;;;;4990955;28;20161;-63
2022/12/23 07:51:34;;;;;;;8.77;1.50;;;8.90;99.90;;;;;;4989816;28;20064;-63
2022/12/23 07:54:00;;;;;;;3.78;1.45;;;8.90;99.90;;;;;;4990062;28;20492;-63
2022/12/23 07:56:27;;;;;;;5.30;1.17;;;8.90;99.90;;;;;;4989524;28;20137;-63
2022/12/23 07:58:54;;;;;;;2.42;1.70;;;8.90;99.90;;;;;;4990419;28;20054;-63
2022/12/23 08:01:21;;;;;;;5.65;1.20;;;8.90;99.90;;;;;;4990077;28;20093;-63
2022/12/23 08:03:48;;;;;;;4.18;1.55;;;8.90;99.90;;;;;;4964728;28;20077;-63
2022/12/23 08:06:15;;;;;;;1.52;1.13;;;8.90;99.90;;;;;;4987854;28;20058;-63
2022/12/23 08:08:43;;;;;;;4.38;1.30;;;8.80;99.90;;;;;;4986908;28;20315;-63
2022/12/23 08:11:10;;;;;;;2.53;1.40;;;8.80;99.90;;;;;;4988954;28;20050;-63
2022/12/23 08:13:39;;;;;;;2.28;1.40;;;8.80;99.90;;;;;;4970740;28;20406;-62
2022/12/23 08:16:06;;;;;;;6.30;1.60;;;8.80;99.90;;;;;;4969347;28;20074;-63
2022/12/23 08:18:35;;;;;;;2.83;1.73;;;8.80;99.90;;;;;;4985475;28;20600;-62
2022/12/23 08:21:17;;;;;;;3.08;1.92;;;8.70;99.90;;;;;;4971530;28;20058;-63
2022/12/23 08:23:47;;;;;;;1.73;1.33;;;8.70;99.90;;;;;;4984593;28;20061;-63
2022/12/23 08:26:21;;;;;;;3.47;1.35;;;8.70;99.90;;;;;;4986621;28;20501;-63
2022/12/23 08:28:52;;;;;;;4.68;1.60;;;8.80;99.90;;;;;;4970453;28;20514;-63
2022/12/23 08:31:20;;;;;;;3.30;1.88;;;8.70;99.90;;;;;;4988673;28;20053;-62
2022/12/23 08:33:49;;;;;;;4.22;2.28;;;8.70;99.90;;;;;;4987999;28;20077;-62
2022/12/23 08:36:22;;;;;;;7.88;3.13;;;8.80;99.90;;;;;;4971032;28;20141;-63
2022/12/23 08:38:51;;;;;;;3.83;1.92;;;8.80;99.90;;;;;;4955608;28;20054;-64
2022/12/23 08:41:21;;;;;;;4.35;1.58;;;8.80;99.90;;;;;;4611930;28;9999913;-63
2022/12/23 08:43:48;;;;;;;5.28;2.13;;;8.80;99.90;;;;;;4956823;28;20050;-63
2022/12/23 08:46:15;;;;;;;5.05;1.88;;;8.70;99.90;;;;;;4988532;28;20512;-63
2022/12/23 08:48:42;;;;;;;4.40;2.47;;;8.80;99.90;;;;;;4988146;28;20563;-63
2022/12/23 08:51:16;;;;;;;9.95;2.40;;;8.80;99.90;;;;;;4960687;28;20046;-62
2022/12/23 08:53:43;;;;;;;7.60;2.28;;;8.80;99.90;;;;;;4992495;28;20409;-61
2022/12/23 08:56:13;;;;;;;4.43;1.92;;;8.80;99.90;;;;;;4957926;28;20090;-64
2022/12/23 08:58:42;;;;;;;2.75;2.13;;;8.80;99.90;;;;;;4963987;28;20060;-62
2022/12/23 09:01:10;;;;;;;1.38;1.25;;;8.80;99.90;;;;;;4964622;28;20389;-62
2022/12/23 09:03:37;;;;;;;1.70;0.70;;;8.70;99.90;;;;;;4973532;28;20042;-68
2022/12/23 09:06:10;;;;;;;3.75;0.68;;;8.80;99.90;;;;;;4956397;28;20046;-61
2022/12/23 09:08:36;;;;;;;1.92;0.70;;;8.80;99.90;;;;;;4973329;28;20510;-61
2022/12/23 09:11:03;;;;;;;0.75;0.63;;;8.90;99.90;;;;;;4985741;28;20054;-61
2022/12/23 09:13:30;;;;;;;1.42;0.93;;;8.90;99.90;;;;;;4992533;28;20246;-62
2022/12/23 09:16:01;;;;;;;0.93;0.88;;;9.00;99.90;;;;;;4995133;28;20054;-62
2022/12/23 09:18:30;;;;;;;2.47;1.00;;;8.90;99.90;;;;;;4973355;28;20046;-60
2022/12/23 09:21:00;;;;;;;2.05;1.23;;;8.90;99.90;;;;;;4989616;28;20133;-61
2022/12/23 09:23:27;;;;;;;2.47;1.42;;;8.90;99.90;;;;;;4956587;28;20065;-62
2022/12/23 09:25:54;;;;;;;2.83;1.63;;;8.90;99.90;;;;;;4972337;28;20081;-61
2022/12/23 09:28:21;;;;;;;2.05;1.20;;;9.00;99.90;;;;;;4956201;28;20069;-61
2022/12/23 09:30:48;;;;;;;1.65;1.20;;;9.00;99.90;;;;;;4989727;28;20513;-62
2022/12/23 09:33:16;;;;;;;1.88;1.25;;;9.00;99.90;;;;;;4956306;28;20509;-61
2022/12/23 09:35:43;;;;;;;2.67;1.45;;;9.10;99.90;;;;;;4971929;28;20054;-63
2022/12/23 09:38:10;;;;;;;1.55;0.85;;;9.10;99.90;;;;;;4972238;28;20047;-61
2022/12/23 09:40:38;;;;;;;0.80;0.60;;;9.10;99.90;;;;;;4971319;28;20060;-61
2022/12/23 09:43:26;;;;;;;1.05;0.80;;;9.10;99.90;;;;;;4962339;28;20050;-62
2022/12/23 09:46:08;;;;;;;3.90;1.02;;;9.10;99.90;;;;;;4972112;28;20436;-63
2022/12/23 09:48:41;;;;;;;5.55;1.02;;;9.10;99.90;;;;;;4986042;28;20120;-61
2022/12/23 09:51:08;;;;;;;0.80;0.60;;;9.10;99.90;;;;;;4971460;28;20291;-62
2022/12/23 09:53:56;;;;;;;1.10;0.60;;;9.10;99.90;;;;;;4971287;28;20054;-60
2022/12/23 09:56:44;;;;;;;1.95;0.52;;;9.20;99.90;;;;;;4971517;28;20639;-62
2022/12/23 09:59:32;;;;;;;1.70;0.70;;;9.30;99.90;;;;;;4992261;28;20089;-61
2022/12/23 10:02:28;;;;;;;1.63;0.70;;;9.20;99.90;;;;;;4992292;28;20137;-62
2022/12/23 10:04:59;;;;;;;2.47;0.98;;;9.20;99.90;;;;;;4971660;28;20134;-61
2022/12/23 10:07:36;;;;;;;1.45;0.88;;;9.20;99.90;;;;;;4974682;28;20050;-61
2022/12/23 10:10:26;;;;;;;1.63;0.93;;;9.10;99.90;;;;;;4974890;28;20612;-62
2022/12/23 10:12:53;;;;;;;3.13;1.15;;;9.20;99.90;;;;;;4974329;28;20580;-62
2022/12/23 10:15:24;;;;;;;5.20;0.60;;;9.30;99.90;;;;;;4974701;28;20120;-62
2022/12/23 10:17:53;;;;;;;4.07;0.95;;;9.30;99.90;;;;;;4975164;28;20074;-62
2022/12/23 10:20:29;;;;;;;2.95;0.93;;;9.20;99.90;;;;;;4991061;28;20078;-62
2022/12/23 10:22:55;;;;;;;0.95;0.60;;;9.30;99.90;;;;;;4988864;28;20053;-62
2022/12/23 10:25:27;;;;;;;1.67;0.77;;;9.30;99.90;;;;;;4989934;28;20046;-61
2022/12/23 10:27:54;;;;;;;2.35;0.90;;;9.40;99.90;;;;;;4985070;28;20062;-62
2022/12/23 10:30:22;;;;;;;3.33;1.13;;;9.40;99.90;;;;;;4939549;28;20054;-61
2022/12/23 10:33:11;;;;;;;2.88;1.30;;;9.50;99.90;;;;;;4989368;28;20043;-63
2022/12/23 10:36:00;;;;;;;1.23;0.77;;;9.50;99.90;;;;;;4972609;28;20227;-63
2022/12/23 10:38:57;;;;;;;1.15;0.80;;;9.50;99.90;;;;;;4991234;28;20096;-62
2022/12/23 10:41:46;;;;;;;3.35;0.85;;;9.60;99.90;;;;;;4989293;28;20089;-61
2022/12/23 10:44:46;;;;;;;1.80;0.90;;;9.60;99.90;;;;;;4979466;28;20047;-62
2022/12/23 10:47:23;;;;;;;2.03;0.80;;;9.70;99.90;;;;;;4970357;28;20081;-62
2022/12/23 10:50:15;;;;;;;1.13;0.65;;;9.70;99.90;;;;;;4978208;28;20101;-62
2022/12/23 10:52:43;;;;;;;0.85;0.70;;;9.80;99.90;;;;;;4987166;28;20065;-62
2022/12/23 10:55:25;;;;;;;1.67;0.88;;;9.80;99.90;;;;;;4956910;28;20129;-63
2022/12/23 10:58:17;;;;;;;1.90;1.10;;;9.80;99.90;;;;;;4950451;28;20042;-63
2022/12/23 11:00:47;;;;;;;2.08;0.90;;;9.90;99.90;;;;;;4958977;28;20086;-62
2022/12/23 11:03:27;;;;;;;0.65;0.65;;;9.90;99.90;;;;;;4953286;28;20046;-60
2022/12/23 11:05:54;;;;;;;1.42;0.90;;;10.00;99.90;;;;;;4974040;28;20475;-61
2022/12/23 11:08:21;;;;;;;3.85;1.42;;;10.00;99.90;;;;;;4973684;28;20125;-63
2022/12/23 11:10:48;;;;;;;3.03;1.10;;;10.00;99.90;;;;;;4957076;28;20104;-62
2022/12/23 11:13:36;;;;;;;0.68;0.65;;;10.10;99.90;;;;;;4953221;28;20358;-62
2022/12/23 11:16:16;;;;;;;2.58;1.40;;;10.10;99.90;;;;;;4971661;28;20707;-62
2022/12/23 11:18:53;;;;;;;3.28;1.30;;;10.20;99.90;;;;;;4988989;28;20061;-63
2022/12/23 11:21:20;;;;;;;3.08;1.40;;;10.20;99.90;;;;;;4989751;28;20142;-62
2022/12/23 11:23:46;;;;;;;2.03;1.20;;;10.20;99.90;;;;;;4989583;28;20060;-62
2022/12/23 11:26:17;;;;;;;1.33;1.00;;;10.30;99.90;;;;;;4968191;28;20514;-60
2022/12/23 11:29:02;;;;;;;1.10;1.00;;;10.40;99.90;;;;;;4972102;28;20077;-63
2022/12/23 11:31:33;;;;;;;2.05;1.15;;;10.40;99.90;;;;;;4955305;28;20481;-62
2022/12/23 11:34:03;;;;;;;1.42;1.00;;;10.30;99.90;;;;;;4956076;28;20482;-61
2022/12/23 11:36:30;;;;;;;14.85;5.53;;;10.40;99.90;;;;;;4989431;28;20096;-62
2022/12/23 11:39:00;;;;;;;6.57;1.80;;;10.40;99.90;;;;;;4972563;28;20050;-62
2022/12/23 11:41:27;;;;;;;2.00;1.40;;;10.50;99.90;;;;;;4989284;28;20077;-62
2022/12/23 11:43:57;;;;;;;2.63;1.50;;;10.60;99.90;;;;;;4972616;28;20050;-62
2022/12/23 11:46:27;;;;;;;6.43;2.97;;;10.60;99.90;;;;;;4982576;28;20093;-62
2022/12/23 11:49:17;;;;;;;2.78;1.80;;;10.70;99.90;;;;;;5003371;28;20502;-62
2022/12/23 11:52:09;;;;;;;3.17;1.65;;;10.70;99.90;;;;;;4989269;28;20510;-62
2022/12/23 11:54:37;;;;;;;4.47;2.08;;;10.70;99.90;;;;;;4967605;28;20997;-63
2022/12/23 11:57:06;;;;;;;4.55;2.00;;;10.80;99.90;;;;;;4986579;28;20549;-63
2022/12/23 11:59:38;;;;;;;4.15;2.10;;;10.90;99.90;;;;;;4948568;28;20051;-62
2022/12/23 12:02:19;;;;;;;6.18;1.35;;;10.90;99.90;;;;;;4938851;28;20208;-62
2022/12/23 12:05:06;;;;;;;5.47;1.70;;;11.00;99.90;;;;;;4948678;29;20069;-63
2022/12/23 12:07:32;;;;;;;6.22;1.85;;;11.10;99.90;;;;;;4946952;28;20051;-62
2022/12/23 12:09:59;;;;;;;3.00;1.50;;;11.20;99.90;;;;;;4929959;28;20138;-63
2022/12/23 12:12:26;;;;;;;6.63;2.58;;;11.30;99.90;;;;;;4965135;28;20047;-62
2022/12/23 12:14:55;;;;;;;3.40;1.60;;;11.40;99.90;;;;;;4948935;28;20054;-60
2022/12/23 12:17:42;;;;;;;8.18;1.65;;;11.50;99.90;;;;;;4965065;28;20051;-62
2022/12/23 12:20:14;;;;;;;6.00;1.45;;;11.70;99.90;;;;;;4958857;28;20138;-61
2022/12/23 12:22:58;;;;;;;5.85;1.67;;;11.90;99.90;;;;;;4959366;28;20085;-62
2022/12/23 12:25:38;;;;;;;8.73;1.50;;;12.00;99.90;;;;;;4943565;28;20478;-61
2022/12/23 12:28:09;;;;;;;7.22;1.40;;;12.20;99.90;;;;;;4961110;28;20105;-63
2022/12/23 12:30:38;;;;;;;6.13;1.35;;;12.20;99.90;;;;;;4944454;29;20486;-63
2022/12/23 12:33:20;;;;;;;8.25;3.03;;;12.20;99.90;;;;;;4945382;28;20055;-63
2022/12/23 12:35:55;;;;;;;10.07;1.50;;;12.30;99.90;;;;;;4960670;28;20043;-62
2022/12/23 12:38:31;;;;;;;6.63;1.35;;;12.40;99.90;;;;;;4930419;29;20098;-64
2022/12/23 12:41:01;;;;;;;5.38;1.17;;;12.40;99.90;;;;;;4960862;28;20254;-62
2022/12/23 12:43:36;;;;;;;6.18;1.33;;;12.50;99.90;;;;;;4944476;29;20320;-63
2022/12/23 12:46:31;;;;;;;5.18;1.45;;;12.50;99.90;;;;;;4928984;29;20051;-63
2022/12/23 12:49:03;;;;;;;5.28;2.33;;;12.60;99.90;;;;;;4957488;28;20447;-63
2022/12/23 12:51:42;;;;;;;3.83;1.50;;;12.60;99.90;;;;;;4944815;28;20558;-62
2022/12/23 12:54:21;;;;;;;3.38;1.23;;;12.70;99.90;;;;;;4948659;29;20081;-61
2022/12/23 12:56:50;;;;;;;4.55;1.65;;;12.70;99.90;;;;;;4954318;28;20047;-62
2022/12/23 12:59:20;;;;;;;5.47;1.40;;;12.80;99.90;;;;;;4950280;29;20063;-62
2022/12/23 13:02:14;;;;;;;7.82;1.65;;;12.80;99.90;;;;;;4961655;28;20193;-60
2022/12/23 13:05:06;;;;;;;8.88;1.77;;;12.80;99.90;;;;;;4945979;28;20125;-62
2022/12/23 13:07:45;;;;;;;13.52;1.83;;;12.90;99.90;;;;;;4958613;28;20421;-62
2022/12/23 13:10:18;;;;;;;18.00;2.08;;;13.00;99.90;;;;;;4944860;29;20061;-62
2022/12/23 13:13:29;;;;;;;4.60;1.35;;;13.00;99.90;;;;;;4960526;28;20518;-61
2022/12/23 13:16:06;;;;;;;10.50;2.05;;;12.90;99.90;;;;;;4945400;29;20050;-62
2022/12/23 13:18:36;;;;;;;5.35;1.88;;;13.00;99.90;;;;;;4600313;28;10000271;-63
2022/12/23 13:21:23;;;;;;;7.43;2.55;;;13.00;99.90;;;;;;4927655;29;20083;-62
2022/12/23 13:24:08;;;;;;;7.35;1.63;;;13.10;99.90;;;;;;4926268;29;20075;-64
2022/12/23 13:27:11;;;;;;;8.40;1.77;;;13.10;99.90;;;;;;4949018;28;20062;-62
2022/12/23 13:29:44;;;;;;;14.77;2.33;;;13.10;99.90;;;;;;4884744;29;20056;-63
2022/12/23 13:32:18;;;;;;;10.07;2.70;;;13.20;99.90;;;;;;4925223;29;20078;-61
2022/12/23 13:35:01;;;;;;;10.73;2.28;;;13.10;99.90;;;;;;4924394;29;20411;-62
2022/12/23 13:37:56;;;;;;;9.57;1.88;;;13.10;99.90;;;;;;4928458;29;20914;-62
2022/12/23 13:40:23;;;;;;;9.82;2.40;;;13.10;99.90;;;;;;4945543;29;20123;-62
2022/12/23 13:42:53;;;;;;;7.47;1.42;;;13.00;99.90;;;;;;4930265;29;20071;-62
2022/12/23 13:45:20;;;;;;;7.43;1.83;;;13.00;99.90;;;;;;4906411;29;20527;-64
2022/12/23 13:47:54;;;;;;;8.45;2.10;;;13.00;99.90;;;;;;4927819;29;20088;-61
2022/12/23 13:50:54;;;;;;;6.85;1.60;;;12.90;99.90;;;;;;4928068;29;20048;-62